Flight Track Log - Related Links

Times and Time Zones

All times are in EDT time to prevent confusion due to time zone crossing. See the SWA378 flight status page for this flight to view local times or setup timezone preferences in your user account.

Time Position Orientation Groundspeed Altitude Reporting Facility
EDT Latitude Longitude Course Direction KTS MPH feet Rate Location/Type
Fri 01:30:57 PM 33.9333 -118.4667 121° Southeast 172 198 1,600  Level Southern California TRACON
Fri 01:31:25 PM 33.9144 -118.4697 188° South 186 214 2,000 1,467 Climbing Los Angeles Center
Fri 01:32:27 PM 33.8403 -118.4861 190° South 256 295 3,800 2,250 Climbing Los Angeles Center
Fri 01:33:41 PM 33.7483 -118.5097 192° South 281 323 7,100 2,824 Climbing Los Angeles Center
Fri 01:34:43 PM 33.6853 -118.4722 154° Southeast 276 318 10,200 2,516 Climbing Los Angeles Center
Fri 01:35:45 PM 33.6786 -118.3792 95° East 286 329 12,300 2,419 Climbing Los Angeles Center
Fri 01:36:00 PM 33.6480 -118.3794 121° Southeast  Level FlightAware Approximate
Fri 01:36:47 PM 33.6775 -118.2506 91° East 335 386 15,200  Level Los Angeles Center
Fri 01:37:50 PM 33.6756 -118.1331 91° East 353 406 17,100 912 Climbing Los Angeles Center
Fri 01:38:52 PM 33.6892 -118.0069 83° East 383 441 17,100 823 Level Los Angeles Center
Fri 01:39:54 PM 33.7050 -117.8825 81° East 381 438 18,800 2,177 Climbing Los Angeles Center
Fri 01:40:56 PM 33.7064 -117.7228 89° East 406 467 21,600 2,419 Climbing Los Angeles Center
Fri 01:41:58 PM 33.6997 -117.5883 93° East 406 467 23,800 2,032 Climbing Los Angeles Center
Fri 01:43:00 PM 33.6931 -117.4511 93° East 411 473 25,800 1,708 Climbing Los Angeles Center
Fri 01:44:15 PM 33.6850 -117.2797 93° East 424 488 27,700 1,401 Climbing Los Angeles Center
Fri 01:45:17 PM 33.6819 -117.1342 91° East 434 499 29,000 1,452 Climbing Los Angeles Center
Fri 01:46:19 PM 33.7089 -116.9919 77° East 438 504 30,700 1,742 Climbing Los Angeles Center
Fri 01:47:21 PM 33.7392 -116.8192 78° East 434 499 32,600 1,645 Climbing Los Angeles Center
Fri 01:48:23 PM 33.7625 -116.6783 79° East 431 496 34,100 1,355 Climbing Los Angeles Center
Fri 01:49:25 PM 33.7853 -116.5403 79° East 423 487 35,400 1,161 Climbing Los Angeles Center
Fri 01:50:27 PM 33.8078 -116.4003 79° East 424 488 36,500 774 Climbing Los Angeles Center
Fri 01:51:29 PM 33.8294 -116.2628 79° East 419 482 37,000 242 Climbing Los Angeles Center
Fri 01:52:31 PM 33.8522 -116.1200 79° East 428 493 37,000  Level Los Angeles Center
Fri 01:53:33 PM 33.8800 -115.9511 79° East 429 494 37,000  Level Los Angeles Center
Fri 01:54:35 PM 33.9003 -115.8083 80° East 431 496 37,000  Level Los Angeles Center
Fri 01:55:37 PM 33.9233 -115.6675 79° East 431 496 37,000  Level Los Angeles Center
Fri 01:56:39 PM 33.9453 -115.5275 79° East 427 491 37,000  Level Los Angeles Center
Fri 01:57:42 PM 33.9661 -115.3864 80° East 427 491 37,000  Level Los Angeles Center
Fri 01:58:44 PM 33.9878 -115.2461 79° East 427 491 37,000  Level Los Angeles Center
Fri 01:59:46 PM 34.0122 -115.0792 80° East 422 486 37,000  Level Los Angeles Center
Fri 02:00:48 PM 34.0331 -114.9397 80° East 424 488 37,000  Level Los Angeles Center
Fri 02:01:50 PM 34.0547 -114.7994 79° East 424 488 37,000  Level Los Angeles Center
Fri 02:02:52 PM 34.0747 -114.6597 80° East 423 487 37,000  Level Los Angeles Center
Fri 02:03:54 PM 34.0964 -114.5175 80° East 430 495 37,000  Level Los Angeles Center
Fri 02:04:56 PM 34.1164 -114.3744 80° East 432 497 37,000  Level Los Angeles Center
Fri 02:05:58 PM 34.1411 -114.2050 80° East 430 495 37,000  Level Los Angeles Center
Fri 02:07:00 PM 34.1631 -114.0625 79° East 432 497 37,000  Level Los Angeles Center
Fri 02:08:02 PM 34.1789 -113.9181 82° East 435 501 37,000  Level Los Angeles Center
Fri 02:09:04 PM 34.2008 -113.7789 79° East 424 488 37,000  Level Los Angeles Center
Fri 02:10:06 PM 34.2211 -113.6381 80° East 430 495 37,000  Level Los Angeles Center
Fri 02:11:09 PM 34.2453 -113.4728 80° East 431 496 37,000  Level Los Angeles Center
Fri 02:12:19 PM 34.2633 -113.3364 81° East 425 489 37,000  Level Albuquerque Center
Fri 02:13:21 PM 34.2861 -113.1669 81° East 426 490 37,000  Level Albuquerque Center
Fri 02:14:23 PM 34.3044 -113.0256 81° East 425 489 37,000  Level Albuquerque Center
Fri 02:15:24 PM 34.3236 -112.8842 81° East 426 490 37,000  Level Albuquerque Center
Fri 02:16:26 PM 34.3419 -112.7414 81° East 428 493 37,000  Level Albuquerque Center
Fri 02:17:28 PM 34.3622 -112.5986 80° East 429 494 37,000  Level Albuquerque Center
Fri 02:18:30 PM 34.3797 -112.4553 82° East 430 495 37,000  Level Albuquerque Center
Fri 02:19:32 PM 34.3978 -112.3125 81° East 429 494 37,000  Level Albuquerque Center
Fri 02:20:34 PM 34.4194 -112.1417 81° East 427 491 37,000  Level Albuquerque Center
Fri 02:21:36 PM 34.4369 -111.9992 81° East 426 490 37,000  Level Albuquerque Center
Fri 02:22:38 PM 34.4550 -111.8567 81° East 426 490 37,000  Level Albuquerque Center
Fri 02:23:40 PM 34.4731 -111.7131 81° East 427 491 37,000  Level Albuquerque Center
Fri 02:24:41 PM 34.4892 -111.5711 82° East 425 489 37,000  Level Albuquerque Center
Fri 02:25:43 PM 34.5067 -111.4281 82° East 427 491 37,000  Level Albuquerque Center
Fri 02:26:45 PM 34.5236 -111.2864 82° East 425 489 37,000  Level Albuquerque Center
Fri 02:27:47 PM 34.5444 -111.1131 82° East 431 496 37,000  Level Albuquerque Center
Fri 02:28:49 PM 34.5608 -110.9703 82° East 430 495 37,000  Level Albuquerque Center
Fri 02:29:51 PM 34.5769 -110.8253 82° East 431 496 37,000  Level Albuquerque Center
Fri 02:30:53 PM 34.5972 -110.6664 81° East 433 498 37,000  Level Albuquerque Center
Fri 02:31:54 PM 34.6128 -110.5286 82° East 432 497 37,000  Level Albuquerque Center
Fri 02:32:56 PM 34.6281 -110.3900 82° East 432 497 37,000  Level Albuquerque Center
Fri 02:33:58 PM 34.6461 -110.2286 82° East 433 498 37,000  Level Albuquerque Center
Fri 02:35:00 PM 34.6606 -110.0894 83° East 435 501 37,000  Level Albuquerque Center
Fri 02:36:02 PM 34.6775 -109.9236 83° East 440 506 37,000  Level Albuquerque Center
Fri 02:37:04 PM 34.6922 -109.7833 83° East 438 504 37,000  Level Albuquerque Center
Fri 02:38:05 PM 34.7103 -109.6217 82° East 436 502 37,000  Level Albuquerque Center
Fri 02:39:07 PM 34.7242 -109.4822 83° East 436 502 37,000  Level Albuquerque Center
Fri 02:40:09 PM 34.7411 -109.3194 83° East 435 501 37,000  Level Albuquerque Center
Fri 02:41:11 PM 34.7550 -109.1814 83° East 434 499 37,000  Level Albuquerque Center
Fri 02:42:13 PM 34.7714 -109.0203 83° East 431 496 37,000  Level Albuquerque Center
Fri 02:43:15 PM 34.7850 -108.8811 83° East 433 498 37,000  Level Albuquerque Center
Fri 02:44:17 PM 34.8014 -108.7194 83° East 432 497 37,000  Level Albuquerque Center
Fri 02:45:19 PM 34.8144 -108.5794 83° East 435 501 37,000  Level Albuquerque Center
Fri 02:46:21 PM 34.8272 -108.4381 84° East 438 504 37,000  Level Albuquerque Center
Fri 02:47:22 PM 34.8442 -108.2739 83° East 439 505 37,000  Level Albuquerque Center
Fri 02:48:24 PM 34.8561 -108.1328 84° East 439 505 37,000  Level Albuquerque Center
Fri 02:49:26 PM 34.8911 -107.9708 75° East 447 514 37,000  Level Albuquerque Center
Fri 02:50:28 PM 34.9322 -107.8275 71° East 446 513 37,000  Level Albuquerque Center
Fri 02:51:30 PM 34.9717 -107.6875 71° East 441 507 37,000  Level Albuquerque Center
Fri 02:52:32 PM 35.0114 -107.5469 71° East 439 505 37,000  Level Albuquerque Center
Fri 02:53:34 PM 35.0503 -107.4047 71° East 439 505 37,000  Level Albuquerque Center
Fri 02:54:36 PM 35.0858 -107.2608 73° East 442 509 37,000  Level Albuquerque Center
Fri 02:55:38 PM 35.1239 -107.0853 75° East 453 521 37,000  Level Albuquerque Center
Fri 02:56:40 PM 35.1467 -106.9450 79° East 443 510 37,000  Level Albuquerque Center
Fri 02:57:42 PM 35.1617 -106.7783 84° East 443 510 37,000  Level Albuquerque Center
Fri 02:58:44 PM 35.1697 -106.6308 86° East 452 520 37,000  Level Albuquerque Center
Fri 02:59:46 PM 35.1764 -106.4650 87° East 457 526 37,000  Level Albuquerque Center
Fri 03:00:48 PM 35.1850 -106.3111 86° East 456 525 37,000  Level Albuquerque Center
Fri 03:01:49 PM 35.1931 -106.1419 87° East 450 518 37,000  Level Albuquerque Center
Fri 03:02:51 PM 35.2017 -105.9869 86° East 455 524 37,000  Level Albuquerque Center
Fri 03:03:53 PM 35.2119 -105.8308 85° East 459 528 37,000  Level Albuquerque Center
Fri 03:04:55 PM 35.2203 -105.6769 86° East 453 521 37,000  Level Albuquerque Center
Fri 03:05:57 PM 35.2261 -105.5233 87° East 450 518 37,000  Level Albuquerque Center
Fri 03:06:59 PM 35.2336 -105.3703 87° East 447 514 37,000  Level Albuquerque Center
Fri 03:08:00 PM 35.2414 -105.2197 86° East 442 509 37,000  Level Albuquerque Center
Fri 03:09:02 PM 35.2475 -105.0664 87° East 446 513 37,000  Level Albuquerque Center
Fri 03:10:04 PM 35.2553 -104.8869 87° East 447 514 37,000  Level Albuquerque Center
Fri 03:11:06 PM 35.2617 -104.7328 87° East 449 517 37,000  Level Albuquerque Center
Fri 03:12:08 PM 35.2700 -104.5731 86° East 450 518 37,000  Level Albuquerque Center
Fri 03:13:10 PM 35.2781 -104.4319 86° East 453 521 37,000  Level Albuquerque Center
Fri 03:14:11 PM 35.2828 -104.2783 88° East 455 524 37,000 98 Level Albuquerque Center
Fri 03:15:13 PM 35.2892 -104.1247 87° East 452 520 37,200 484 Climbing Albuquerque Center
Fri 03:16:15 PM 35.2950 -103.9394 88° East 455 524 38,000 387 Climbing Albuquerque Center
Fri 03:17:17 PM 35.2997 -103.7875 88° East 457 526 38,000  Level Albuquerque Center
Fri 03:18:19 PM 35.3053 -103.6306 87° East 458 527 38,000  Level Albuquerque Center
Fri 03:19:21 PM 35.3111 -103.4728 87° East 459 528 38,000  Level Albuquerque Center
Fri 03:20:23 PM 35.3167 -103.3147 87° East 461 531 38,000  Level Albuquerque Center
Fri 03:21:24 PM 35.3206 -103.1556 88° East 463 533 38,000  Level Albuquerque Center
Fri 03:22:26 PM 35.3253 -102.9697 88° East 465 535 38,000  Level Albuquerque Center
Fri 03:23:28 PM 35.3314 -102.8100 87° East 465 535 38,000  Level Albuquerque Center
Fri 03:24:30 PM 35.3350 -102.6497 88° East 466 536 38,000  Level Albuquerque Center
Fri 03:25:32 PM 35.3386 -102.4944 88° East 466 536 38,000 387 Level Albuquerque Center
Fri 03:26:34 PM 35.3428 -102.3375 88° East 463 533 38,800 484 Climbing Albuquerque Center
Fri 03:27:36 PM 35.3467 -102.1781 88° East 467 537 39,000 98 Climbing Albuquerque Center
Fri 03:28:37 PM 35.3506 -102.0172 88° East 471 542 39,000  Level Albuquerque Center
Fri 03:29:39 PM 35.3553 -101.8469 88° East 473 544 39,000  Level Albuquerque Center
Fri 03:30:41 PM 35.3611 -101.6856 87° East 472 543 39,000  Level Albuquerque Center
Fri 03:31:43 PM 35.3633 -101.5206 89° East 471 542 39,000  Level Albuquerque Center
Fri 03:32:45 PM 35.3644 -101.3583 89° East 474 545 39,000  Level Albuquerque Center
Fri 03:33:47 PM 35.3664 -101.1683 89° East 475 547 39,000  Level Albuquerque Center
Fri 03:34:49 PM 35.3686 -101.0058 89° East 476 548 39,000  Level Albuquerque Center
Fri 03:35:51 PM 35.3711 -100.8436 89° East 478 550 39,000  Level Albuquerque Center
Fri 03:36:52 PM 35.3733 -100.6819 89° East 476 548 39,000  Level Albuquerque Center
Fri 03:37:54 PM 35.3742 -100.5147 90° East 475 547 39,000  Level Albuquerque Center
Fri 03:38:56 PM 35.3764 -100.3542 89° East 473 544 39,000  Level Albuquerque Center
Fri 03:39:58 PM 35.3767 -100.1936 90° East 472 543 39,000  Level Albuquerque Center
Fri 03:41:00 PM 35.3775 -100.0028 90° East 469 540 39,000  Level Albuquerque Center
Fri 03:42:02 PM 35.3794 -99.8436 89° East 468 539 39,000  Level Albuquerque Center
Fri 03:43:04 PM 35.3789 -99.6839 90° East 470 541 39,000  Level Albuquerque Center
Fri 03:44:06 PM 35.3792 -99.5242 90° East 470 541 39,000  Level Albuquerque Center
Fri 03:45:14 PM 35.3769 -99.3281 91° East 466 536 39,000  Level Fort Worth Center
Fri 03:46:14 PM 35.3792 -99.1653 89° East 466 536 39,000  Level Fort Worth Center
Fri 03:47:14 PM 35.3772 -99.0075 91° East 457 526 39,000  Level Fort Worth Center
Fri 03:48:14 PM 35.3772 -98.8394 90° East 474 545 39,000  Level Fort Worth Center
Fri 03:49:14 PM 35.3769 -98.6714 90° East 480 552 39,000  Level Fort Worth Center
Fri 03:50:14 PM 35.3742 -98.5058 91° East 480 552 39,000  Level Fort Worth Center
Fri 03:51:14 PM 35.3756 -98.3428 89° East 474 545 39,000  Level Fort Worth Center
Fri 03:52:14 PM 35.3725 -98.1747 91° East 480 552 39,000  Level Fort Worth Center
Fri 03:53:14 PM 35.3714 -98.0067 90° East 485 558 39,000  Level Fort Worth Center
Fri 03:54:14 PM 35.3681 -97.8414 91° East 485 558 39,000  Level Fort Worth Center
Fri 03:55:14 PM 35.3664 -97.6733 91° East 485 558 39,000  Level Fort Worth Center
Fri 03:56:14 PM 35.3644 -97.5078 91° East 485 558 39,000  Level Fort Worth Center
Fri 03:57:14 PM 35.3603 -97.3372 92° East 492 566 39,000  Level Fort Worth Center
Fri 03:58:14 PM 35.3558 -97.1667 92° East 497 572 39,000  Level Fort Worth Center
Fri 03:59:14 PM 35.3533 -97.0139 91° East 497 572 39,000  Level Fort Worth Center
Fri 04:00:14 PM 35.3508 -96.8511 91° East 491 565 39,000  Level Fort Worth Center
Fri 04:01:14 PM 35.3478 -96.6806 91° East 491 565 39,000  Level Fort Worth Center
Fri 04:02:14 PM 35.3447 -96.5100 91° East 496 571 39,000  Level Fort Worth Center
Fri 04:03:14 PM 35.3392 -96.3397 92° East 496 571 39,000  Level Fort Worth Center
Fri 04:04:14 PM 35.3356 -96.1692 91° East 496 571 39,000  Level Fort Worth Center
Fri 04:05:14 PM 35.3294 -95.9989 92° East 496 571 39,000  Level Fort Worth Center
Fri 04:06:14 PM 35.3253 -95.8156 92° East 496 571 39,000  Level Fort Worth Center
Fri 04:07:14 PM 35.3208 -95.6453 92° East 496 571 39,000  Level Fort Worth Center
Fri 04:08:56 PM 35.3133 -95.3697 92° East 478 550 39,000  Level Memphis Center
Fri 04:09:56 PM 35.3036 -95.1961 94° East 490 564 39,000  Level Memphis Center
Fri 04:10:56 PM 35.2997 -95.0228 92° East 503 579 39,000  Level Memphis Center
Fri 04:11:56 PM 35.2936 -94.8469 92° East 503 579 39,000  Level Memphis Center
Fri 04:12:56 PM 35.2853 -94.6736 93° East 508 585 39,000  Level Memphis Center
Fri 04:13:56 PM 35.2808 -94.4953 92° East 520 598 39,000  Level Memphis Center
Fri 04:14:56 PM 35.2739 -94.3219 93° East 515 593 39,000  Level Memphis Center
Fri 04:15:56 PM 35.2669 -94.1489 93° East 515 593 39,000  Level Memphis Center
Fri 04:16:56 PM 35.2575 -93.9756 94° East 515 593 39,000  Level Memphis Center
Fri 04:17:56 PM 35.2500 -93.7997 93° East 515 593 39,000  Level Memphis Center
Fri 04:18:56 PM 35.2442 -93.6267 92° East 515 593 39,000  Level Memphis Center
Fri 04:19:56 PM 35.2339 -93.4533 94° East 515 593 39,000  Level Memphis Center
Fri 04:20:56 PM 35.2258 -93.2675 93° East 507 583 39,000  Level Memphis Center
Fri 04:21:56 PM 35.2172 -93.0969 93° East 500 575 39,000  Level Memphis Center
Fri 04:22:56 PM 35.2064 -92.9161 94° East 506 582 39,000  Level Memphis Center
Fri 04:23:56 PM 35.1972 -92.7456 94° East 506 582 39,000  Level Memphis Center
Fri 04:24:56 PM 35.1861 -92.5675 94° East 517 595 39,000  Level Memphis Center
Fri 04:25:56 PM 35.1764 -92.3919 94° East 522 601 39,000  Level Memphis Center
Fri 04:26:56 PM 35.1667 -92.2164 94° East 522 601 39,000  Level Memphis Center
Fri 04:27:56 PM 35.1567 -92.0383 94° East 517 595 39,000  Level Memphis Center
Fri 04:28:56 PM 35.1444 -91.8606 95° East 517 595 39,000  Level Memphis Center
Fri 04:29:56 PM 35.1339 -91.6825 94° East 517 595 39,000  Level Memphis Center
Fri 04:30:56 PM 35.1253 -91.5047 93° East 517 595 39,000  Level Memphis Center
Fri 04:31:56 PM 35.1142 -91.3292 94° East 517 595 39,000  Level Memphis Center
Fri 04:32:56 PM 35.1008 -91.1592 95° East 515 593 39,000  Level Memphis Center
Fri 04:33:56 PM 35.0892 -90.9814 95° East 520 598 39,000  Level Memphis Center
Fri 04:34:56 PM 35.0794 -90.8214 94° East 520 598 39,000  Level Memphis Center
Fri 04:35:56 PM 35.0656 -90.6464 95° East 520 598 39,000  Level Memphis Center
Fri 04:36:56 PM 35.0533 -90.4686 95° East 520 598 39,000  Level Memphis Center
Fri 04:37:56 PM 35.0408 -90.2911 95° East 520 598 39,000  Level Memphis Center
Fri 04:38:56 PM 35.0281 -90.1161 95° East 520 598 39,000  Level Memphis Center
Fri 04:39:56 PM 35.0108 -89.9211 96° East 520 598 39,000  Level Memphis Center
Fri 04:40:56 PM 34.9850 -89.7436 100° East 520 598 39,000  Level Memphis Center
Fri 04:41:56 PM 34.9567 -89.5614 101° East 532 612 39,000  Level Memphis Center
Fri 04:42:56 PM 34.9283 -89.3869 101° East 536 617 39,000  Level Memphis Center
Fri 04:43:56 PM 34.9042 -89.2303 101° East 536 617 39,000 -350 Level Memphis Center
Fri 04:44:56 PM 34.8775 -89.0558 101° East 525 604 38,300 -450 Descending Memphis Center
Fri 04:45:56 PM 34.8503 -88.8792 101° East 525 604 38,100 -150 Descending Memphis Center
Fri 04:46:56 PM 34.8231 -88.7053 101° East 520 598 38,000 -50 Descending Memphis Center
Fri 04:47:56 PM 34.7958 -88.5364 101° East 526 605 38,000  Level Memphis Center
Fri 04:48:56 PM 34.7703 -88.3675 100° East 515 593 38,000  Level Memphis Center
Fri 04:49:56 PM 34.7422 -88.1964 101° East 515 593 38,000 -500 Level Memphis Center
Fri 04:50:56 PM 34.7117 -88.0050 101° East 526 605 37,000 -1,900 Descending Memphis Center
Fri 04:51:56 PM 34.6853 -87.8314 100° East 521 600 34,200 -2,000 Descending Memphis Center
Fri 04:52:56 PM 34.6567 -87.6658 102° East 511 588 33,000 -600 Descending Memphis Center
Fri 04:53:56 PM 34.6283 -87.5153 103° East 504 580 33,000  Level Memphis Center
Fri 04:54:56 PM 34.5994 -87.3497 102° East 504 580 33,000  Level Memphis Center
Fri 04:55:34 PM 34.5794 -87.2228 101° East 505 581 33,000  Level Atlanta Center
Fri 04:56:34 PM 34.5464 -87.0525 103° East 499 574 33,000  Level Atlanta Center
Fri 04:57:34 PM 34.5147 -86.8850 103° East 504 580 33,000 -200 Level Atlanta Center
Fri 04:58:34 PM 34.4811 -86.7100 103° East 511 588 32,600 -650 Descending Atlanta Center
Fri 04:59:34 PM 34.4492 -86.5428 103° East 511 588 31,700 -950 Descending Atlanta Center
Fri 05:00:34 PM 34.4150 -86.3731 104° East 511 588 30,700 -1,000 Descending Atlanta Center
Fri 05:01:34 PM 34.3825 -86.2058 103° East 511 588 29,700 -1,400 Descending Atlanta Center
Fri 05:02:34 PM 34.3497 -86.0442 104° East 505 581 27,900 -1,900 Descending Atlanta Center
Fri 05:03:34 PM 34.3208 -85.8925 103° East 482 555 25,900 -1,900 Descending Atlanta Center
Fri 05:04:34 PM 34.2956 -85.7661 104° East 447 514 24,100 -1,550 Descending Atlanta Center
Fri 05:05:34 PM 34.2664 -85.6147 103° East 429 494 22,800 -1,250 Descending Atlanta Center
Fri 05:06:34 PM 34.2367 -85.4761 105° East 419 482 21,600 -1,600 Descending Atlanta Center
Fri 05:07:34 PM 34.2111 -85.3425 103° East 409 471 19,600 -1,900 Descending Atlanta Center
Fri 05:08:34 PM 34.1831 -85.2114 104° East 401 461 17,800 -2,000 Descending Atlanta Center
Fri 05:09:34 PM 34.1444 -85.0956 112° Southeast 385 443 15,600 -1,950 Descending Atlanta Center
Fri 05:10:34 PM 34.0764 -85.0069 133° Southeast 358 412 13,900 -1,300 Descending Atlanta Center
Fri 05:11:34 PM 34.0061 -84.9183 134° Southeast 353 406 13,000 -900 Descending Atlanta Center
Fri 05:12:34 PM 33.9378 -84.8325 134° Southeast 353 406 12,100 -500 Descending Atlanta Center
Fri 05:13:34 PM 33.8694 -84.7444 133° Southeast 353 406 12,000 -65 Descending Atlanta Center
Fri 05:14:06 PM 33.8333 -84.7000 134° Southeast 356 410 12,000  Level Atlanta TRACON
Fri 05:15:06 PM 33.7667 -84.6167 134° Southeast 291 335 12,000 -250 Level Atlanta TRACON
Fri 05:16:06 PM 33.7333 -84.5500 121° Southeast 253 291 11,500 -900 Descending Atlanta TRACON
Fri 05:17:06 PM 33.7333 -84.4667 90° East 276 318 10,200 -1,700 Descending Atlanta TRACON
Fri 05:18:06 PM 33.7333 -84.3667 90° East 278 320 8,100 -1,850 Descending Atlanta TRACON
Fri 05:19:06 PM 33.7333 -84.2833 90° East 260 299 6,500 -1,600 Descending Atlanta TRACON
Fri 05:20:06 PM 33.6833 -84.2500 151° Southeast 222 255 4,900 -1,850 Descending Atlanta TRACON
Fri 05:21:06 PM 33.6500 -84.3000 231° Southwest 203 234 2,800 -1,500 Descending Atlanta TRACON
Fri 05:22:06 PM 33.6500 -84.3500 270° West 154 177 1,900 -900 Descending Atlanta TRACON
Fri 05:24:00 PM 33.6333 -84.4167 North  Level FlightAware Approximate
Fri 05:31:00 PM 33.6367 -84.4279 North  Level Estimated
Fri 05:32:00 PM 33.6367 -84.4279 North  Level Estimated

Login

Don't have an account? Register now (free) for customized features, flight alerts, and more!